createdAt,value
2017-12-19T00:01:54.894Z,-0.40
2017-12-19T00:04:24.192Z,-0.30
2017-12-19T00:06:53.568Z,-0.40
2017-12-19T00:09:23.796Z,-0.20
2017-12-19T00:11:52.790Z,-0.30
2017-12-19T00:14:23.056Z,-0.30
2017-12-19T00:16:53.139Z,-0.20
2017-12-19T00:19:28.928Z,-0.20
2017-12-19T00:21:58.251Z,-0.20
2017-12-19T00:24:27.098Z,-0.20
2017-12-19T00:26:56.974Z,-0.30
2017-12-19T00:29:26.776Z,-0.40
2017-12-19T00:31:56.554Z,-0.30
2017-12-19T00:34:26.327Z,-0.30
2017-12-19T00:36:56.913Z,-0.20
2017-12-19T00:39:26.903Z,-0.30
2017-12-19T00:41:56.927Z,-0.30
2017-12-19T00:44:26.731Z,-0.20
2017-12-19T00:46:56.589Z,-0.30
2017-12-19T00:49:26.465Z,-0.30
2017-12-19T00:51:55.917Z,-0.30
2017-12-19T00:54:25.660Z,-0.30
2017-12-19T00:56:55.497Z,-0.30
2017-12-19T00:59:24.636Z,-0.30
2017-12-19T01:01:54.417Z,-0.20
2017-12-19T01:04:24.209Z,-0.20
2017-12-19T01:06:54.030Z,-0.10
2017-12-19T01:09:23.662Z,-0.10
2017-12-19T01:11:53.510Z,0.00
2017-12-19T01:14:23.271Z,0.00
2017-12-19T01:16:53.051Z,0.10
2017-12-19T01:19:23.559Z,0.10
2017-12-19T01:21:53.360Z,0.10
2017-12-19T01:24:23.096Z,0.10
2017-12-19T01:26:53.675Z,0.20
2017-12-19T01:29:23.407Z,0.10
2017-12-19T01:31:53.326Z,0.20
2017-12-19T01:34:22.795Z,0.20
2017-12-19T01:36:52.577Z,0.20
2017-12-19T01:39:23.092Z,0.30
2017-12-19T01:41:52.860Z,0.20
2017-12-19T01:44:22.591Z,0.20
2017-12-19T01:46:52.413Z,0.20
2017-12-19T01:49:22.147Z,0.10
2017-12-19T01:51:52.677Z,0.10
2017-12-19T01:54:23.175Z,0.20
2017-12-19T01:56:52.965Z,0.20
2017-12-19T01:59:22.698Z,0.10
2017-12-19T02:01:52.725Z,0.10
2017-12-19T02:04:23.277Z,0.20
2017-12-19T02:06:53.814Z,0.20
2017-12-19T02:09:23.614Z,0.20
2017-12-19T02:11:53.810Z,0.20
2017-12-19T02:14:23.686Z,0.20
2017-12-19T02:16:52.789Z,0.20
2017-12-19T02:19:21.877Z,0.30
2017-12-19T02:21:50.989Z,0.20
2017-12-19T02:24:19.832Z,0.10
2017-12-19T02:26:48.773Z,0.20
2017-12-19T02:29:18.034Z,0.20
2017-12-19T02:31:46.853Z,0.20
2017-12-19T02:34:15.932Z,0.20
2017-12-19T02:36:44.766Z,0.20
2017-12-19T02:39:13.602Z,0.30
2017-12-19T02:41:42.447Z,0.30
2017-12-19T02:44:12.052Z,0.40
2017-12-19T02:46:41.661Z,0.40
2017-12-19T02:49:11.266Z,0.40
2017-12-19T02:51:41.026Z,0.40
2017-12-19T02:54:10.141Z,0.40
2017-12-19T02:56:38.991Z,0.40
2017-12-19T02:59:08.120Z,0.40
2017-12-19T03:01:36.944Z,0.50
2017-12-19T03:04:05.718Z,0.50
2017-12-19T03:06:34.547Z,0.50
2017-12-19T03:09:03.487Z,0.50
2017-12-19T03:11:32.392Z,0.50
2017-12-19T03:14:01.544Z,0.60
2017-12-19T03:16:33.626Z,0.50
2017-12-19T03:19:02.456Z,0.50
2017-12-19T03:21:31.269Z,0.50
2017-12-19T03:24:00.082Z,0.60
2017-12-19T03:26:29.999Z,0.70
2017-12-19T03:28:58.862Z,0.70
2017-12-19T03:31:28.523Z,0.70
2017-12-19T03:33:58.166Z,0.70
2017-12-19T03:36:27.762Z,0.70
2017-12-19T03:38:56.856Z,0.70
2017-12-19T03:41:25.718Z,0.70
2017-12-19T03:43:54.508Z,0.70
2017-12-19T03:46:23.622Z,0.60
2017-12-19T03:48:52.470Z,0.70
2017-12-19T03:51:21.319Z,0.70
2017-12-19T03:53:50.951Z,0.80
2017-12-19T03:56:20.517Z,0.80
2017-12-19T03:58:49.338Z,0.80
2017-12-19T04:01:18.233Z,0.90
2017-12-19T04:03:47.814Z,0.90
2017-12-19T04:06:17.489Z,0.80
2017-12-19T04:08:46.595Z,0.80
2017-12-19T04:11:15.433Z,0.90
2017-12-19T04:13:44.606Z,0.80
2017-12-19T04:16:13.738Z,0.80
2017-12-19T04:18:43.302Z,0.90
2017-12-19T04:21:12.442Z,0.90
2017-12-19T04:23:41.855Z,1.00
2017-12-19T04:26:10.938Z,1.00
2017-12-19T04:28:40.034Z,1.00
2017-12-19T04:31:09.129Z,1.00
2017-12-19T04:33:39.198Z,1.00
2017-12-19T04:36:08.293Z,1.00
2017-12-19T04:38:37.697Z,1.00
2017-12-19T04:41:07.169Z,1.00
2017-12-19T04:43:36.250Z,1.00
2017-12-19T04:46:07.509Z,1.00
2017-12-19T04:48:36.635Z,1.00
2017-12-19T04:51:05.707Z,1.10
2017-12-19T04:53:35.462Z,1.10
2017-12-19T04:56:04.581Z,1.10
2017-12-19T04:58:34.340Z,1.10
2017-12-19T05:01:04.184Z,1.10
2017-12-19T05:03:33.081Z,1.10
2017-12-19T05:06:02.490Z,1.10
2017-12-19T05:08:31.890Z,1.10
2017-12-19T05:11:00.979Z,1.10
2017-12-19T05:13:30.075Z,1.20
2017-12-19T05:15:59.201Z,1.20
2017-12-19T05:18:28.663Z,1.20
2017-12-19T05:20:57.817Z,1.20
2017-12-19T05:23:28.459Z,1.20
2017-12-19T05:25:58.321Z,1.20
2017-12-19T05:28:27.418Z,1.20
2017-12-19T05:30:56.233Z,1.20
2017-12-19T05:33:26.011Z,1.10
2017-12-19T05:35:55.094Z,1.10
2017-12-19T05:38:24.242Z,1.10
2017-12-19T05:40:53.363Z,1.10
2017-12-19T05:43:23.566Z,1.20
2017-12-19T05:45:53.895Z,1.20
2017-12-19T05:48:23.895Z,1.20
2017-12-19T05:50:53.325Z,1.20
2017-12-19T05:53:23.583Z,1.30
2017-12-19T05:55:52.762Z,1.20
2017-12-19T05:58:22.635Z,1.30
2017-12-19T06:00:51.696Z,1.20
2017-12-19T06:03:20.571Z,1.20
2017-12-19T06:05:49.671Z,1.20
2017-12-19T06:08:18.897Z,1.20
2017-12-19T06:10:47.978Z,1.20
2017-12-19T06:13:17.687Z,1.30
2017-12-19T06:15:46.758Z,1.30
2017-12-19T06:18:15.953Z,1.30
2017-12-19T06:20:45.038Z,1.40
2017-12-19T06:23:15.214Z,1.30
2017-12-19T06:25:44.710Z,1.30
2017-12-19T06:28:14.331Z,1.40
2017-12-19T06:30:43.747Z,1.30
2017-12-19T06:33:13.590Z,1.30
2017-12-19T06:35:43.787Z,1.20
2017-12-19T06:38:12.852Z,1.20
2017-12-19T06:40:42.256Z,1.20
2017-12-19T06:43:11.694Z,1.30
2017-12-19T06:45:41.142Z,1.30
2017-12-19T06:48:10.239Z,1.40
2017-12-19T06:50:39.677Z,1.40
2017-12-19T06:53:09.978Z,1.40
2017-12-19T06:55:39.066Z,1.40
2017-12-19T06:58:08.517Z,1.40
2017-12-19T07:00:38.090Z,1.50
2017-12-19T07:03:07.287Z,1.50
2017-12-19T07:05:36.374Z,1.50
2017-12-19T07:08:05.772Z,1.50
2017-12-19T07:10:35.205Z,1.60
2017-12-19T07:13:04.684Z,1.70
2017-12-19T07:15:33.862Z,1.60
2017-12-19T07:18:03.295Z,1.60
2017-12-19T07:20:32.721Z,1.60
2017-12-19T07:23:01.864Z,1.60
2017-12-19T07:25:32.042Z,1.70
2017-12-19T07:28:01.184Z,1.70
2017-12-19T07:30:30.257Z,1.70
2017-12-19T07:32:59.654Z,1.70
2017-12-19T07:35:29.048Z,1.70
2017-12-19T07:37:58.124Z,1.70
2017-12-19T07:40:27.521Z,1.70
2017-12-19T07:42:56.653Z,1.70
2017-12-19T07:45:26.038Z,1.70
2017-12-19T07:47:55.839Z,1.70
2017-12-19T07:50:25.761Z,1.80
2017-12-19T07:52:55.201Z,1.70
2017-12-19T07:55:24.970Z,1.80
2017-12-19T07:57:55.003Z,1.70
2017-12-19T08:00:24.998Z,1.70
2017-12-19T08:02:54.746Z,1.80
2017-12-19T08:05:24.197Z,1.70
2017-12-19T08:07:54.033Z,1.70
2017-12-19T08:10:23.935Z,1.80
2017-12-19T08:12:53.701Z,1.80
2017-12-19T08:15:23.122Z,1.70
2017-12-19T08:17:53.382Z,1.70
2017-12-19T08:20:22.469Z,1.70
2017-12-19T08:22:52.188Z,1.70
2017-12-19T08:25:21.975Z,1.70
2017-12-19T08:27:51.742Z,1.70
2017-12-19T08:30:21.155Z,1.70
2017-12-19T08:32:51.715Z,1.70
2017-12-19T08:35:21.182Z,1.70
2017-12-19T08:37:50.951Z,1.80
2017-12-19T08:40:20.682Z,1.80
2017-12-19T08:42:50.203Z,1.80
2017-12-19T08:45:19.951Z,1.80
2017-12-19T08:47:50.490Z,1.90
2017-12-19T08:50:20.996Z,1.90
2017-12-19T08:52:50.736Z,1.90
2017-12-19T08:55:20.516Z,2.00
2017-12-19T08:57:50.329Z,2.00
2017-12-19T09:00:20.077Z,2.00
2017-12-19T09:02:49.457Z,2.10
2017-12-19T09:05:19.978Z,2.20
2017-12-19T09:07:49.705Z,2.10
2017-12-19T09:10:20.210Z,2.20
2017-12-19T09:12:50.055Z,2.20
2017-12-19T09:15:20.560Z,2.40
2017-12-19T09:17:50.324Z,2.40
2017-12-19T09:20:20.089Z,2.40
2017-12-19T09:22:49.830Z,2.50
2017-12-19T09:25:19.602Z,2.40
2017-12-19T09:27:49.318Z,2.50
2017-12-19T09:30:19.843Z,2.60
2017-12-19T09:32:50.335Z,2.60
2017-12-19T09:35:21.133Z,2.60
2017-12-19T09:37:51.686Z,2.60
2017-12-19T09:40:21.444Z,2.60
2017-12-19T09:42:51.286Z,2.70
2017-12-19T09:45:21.038Z,2.70
2017-12-19T09:47:50.817Z,2.80
2017-12-19T09:50:20.573Z,2.70
2017-12-19T09:52:50.304Z,2.70
2017-12-19T09:55:20.867Z,2.60
2017-12-19T09:57:51.382Z,2.60
2017-12-19T10:00:21.165Z,2.60
2017-12-19T10:02:50.887Z,2.70
2017-12-19T10:05:20.482Z,2.70
2017-12-19T10:07:49.961Z,2.70
2017-12-19T10:10:19.693Z,2.80
2017-12-19T10:12:49.451Z,2.80
2017-12-19T10:15:19.161Z,2.80
2017-12-19T10:17:48.922Z,2.90
2017-12-19T10:20:17.998Z,2.80
2017-12-19T10:22:47.429Z,2.80
2017-12-19T10:25:16.314Z,2.80
2017-12-19T10:27:45.733Z,2.80
2017-12-19T10:30:14.792Z,2.80
2017-12-19T10:32:43.911Z,2.80
2017-12-19T10:35:12.714Z,2.80
2017-12-19T10:37:42.134Z,2.80
2017-12-19T10:40:11.404Z,2.90
2017-12-19T10:42:40.855Z,2.90
2017-12-19T10:45:11.074Z,2.90
2017-12-19T10:47:40.860Z,2.90
2017-12-19T10:50:10.605Z,3.00
2017-12-19T10:52:41.178Z,2.90
2017-12-19T10:55:11.326Z,2.90
2017-12-19T10:57:41.093Z,2.90
2017-12-19T11:00:11.631Z,2.80
2017-12-19T11:02:46.300Z,2.80
2017-12-19T11:05:16.190Z,2.80
2017-12-19T11:07:45.936Z,2.90
2017-12-19T11:10:15.692Z,2.90
2017-12-19T11:12:45.452Z,3.00
2017-12-19T11:15:15.191Z,3.00
2017-12-19T11:17:45.722Z,3.10
2017-12-19T11:20:16.227Z,3.10
2017-12-19T11:22:45.981Z,3.10
2017-12-19T11:25:14.795Z,3.10
2017-12-19T11:27:43.402Z,3.10
2017-12-19T11:30:13.196Z,3.00
2017-12-19T11:32:42.016Z,3.00
2017-12-19T11:35:11.567Z,3.00
2017-12-19T11:37:40.410Z,3.00
2017-12-19T11:40:09.571Z,3.10
2017-12-19T11:42:39.349Z,3.00
2017-12-19T11:45:09.619Z,3.10
2017-12-19T11:47:39.348Z,3.00
2017-12-19T11:50:09.109Z,3.10
2017-12-19T11:52:38.873Z,3.10
2017-12-19T11:55:08.613Z,3.20
2017-12-19T11:57:39.116Z,3.30
2017-12-19T12:00:08.182Z,3.30
2017-12-19T12:02:37.672Z,3.30
2017-12-19T12:05:07.394Z,3.40
2017-12-19T12:07:37.143Z,3.40
2017-12-19T12:10:06.918Z,3.50
2017-12-19T12:12:36.728Z,3.40
2017-12-19T12:15:06.486Z,3.40
2017-12-19T12:17:37.008Z,3.30
2017-12-19T12:20:06.772Z,3.30
2017-12-19T12:22:36.226Z,3.30
2017-12-19T12:25:07.202Z,3.30
2017-12-19T12:27:36.022Z,3.30
2017-12-19T12:30:05.455Z,3.30
2017-12-19T12:32:35.258Z,3.30
2017-12-19T12:35:04.355Z,3.30
2017-12-19T12:37:34.604Z,3.30
2017-12-19T12:40:03.708Z,3.30
2017-12-19T12:42:34.281Z,3.40
2017-12-19T12:45:04.091Z,3.40
2017-12-19T12:47:33.812Z,3.40
2017-12-19T12:50:03.563Z,3.40
2017-12-19T12:52:34.181Z,3.40
2017-12-19T12:55:03.918Z,3.40
2017-12-19T12:57:33.342Z,3.40
2017-12-19T13:00:02.506Z,3.40
2017-12-19T13:02:32.026Z,3.40
2017-12-19T13:05:01.484Z,3.40
2017-12-19T13:07:31.794Z,3.40
2017-12-19T13:10:01.565Z,3.40
2017-12-19T13:12:31.422Z,3.50
2017-12-19T13:15:01.213Z,3.40
2017-12-19T13:17:30.622Z,3.50
2017-12-19T13:20:00.446Z,3.40
2017-12-19T13:22:30.211Z,3.50
2017-12-19T13:25:00.806Z,3.50
2017-12-19T13:27:30.550Z,3.40
2017-12-19T13:30:01.062Z,3.50
2017-12-19T13:32:30.799Z,3.50
2017-12-19T13:35:01.333Z,3.50
2017-12-19T13:37:31.118Z,3.50
2017-12-19T13:40:00.940Z,3.60
2017-12-19T13:42:32.368Z,3.70
2017-12-19T13:45:02.628Z,3.70
2017-12-19T13:47:33.109Z,3.80
2017-12-19T13:50:02.876Z,3.70
2017-12-19T13:52:32.846Z,3.80
2017-12-19T13:55:02.670Z,3.80
2017-12-19T13:57:32.451Z,3.90
2017-12-19T14:00:01.858Z,3.90
2017-12-19T14:02:32.049Z,3.90
2017-12-19T14:05:01.829Z,3.90
2017-12-19T14:07:32.341Z,3.80
2017-12-19T14:10:02.113Z,3.80
2017-12-19T14:12:31.616Z,3.90
2017-12-19T14:15:01.566Z,3.90
2017-12-19T14:17:31.124Z,4.00
2017-12-19T14:20:00.905Z,4.00
2017-12-19T14:22:30.417Z,4.00
2017-12-19T14:25:00.227Z,4.00
2017-12-19T14:27:30.418Z,4.10
2017-12-19T14:30:00.202Z,4.20
2017-12-19T14:32:29.963Z,4.20
2017-12-19T14:34:59.776Z,4.00
2017-12-19T14:37:29.555Z,4.00
2017-12-19T14:39:59.385Z,4.00
2017-12-19T14:42:29.308Z,4.00
2017-12-19T14:44:59.084Z,4.10
2017-12-19T14:47:28.956Z,4.20
2017-12-19T14:49:59.481Z,4.20
2017-12-19T14:52:29.239Z,4.20
2017-12-19T14:54:58.990Z,4.20
2017-12-19T14:57:28.758Z,4.30
2017-12-19T14:59:58.618Z,4.30
2017-12-19T15:02:28.406Z,4.40
2017-12-19T15:04:58.164Z,4.30
2017-12-19T15:07:28.671Z,4.20
2017-12-19T15:09:58.450Z,4.20
2017-12-19T15:12:28.175Z,4.30
2017-12-19T15:14:57.930Z,4.30
2017-12-19T15:17:28.585Z,4.30
2017-12-19T15:19:58.374Z,4.30
2017-12-19T15:22:28.880Z,4.30
2017-12-19T15:24:58.648Z,4.30
2017-12-19T15:27:28.402Z,4.30
2017-12-19T15:29:57.871Z,4.20
2017-12-19T15:32:27.692Z,4.30
2017-12-19T15:34:57.671Z,4.30
2017-12-19T15:37:27.425Z,4.30
2017-12-19T15:39:57.260Z,4.30
2017-12-19T15:42:26.994Z,4.30
2017-12-19T15:44:56.500Z,4.30
2017-12-19T15:47:26.255Z,4.30
2017-12-19T15:49:56.026Z,4.30
2017-12-19T15:52:26.536Z,4.30
2017-12-19T15:54:56.313Z,4.30
2017-12-19T15:57:26.117Z,4.20
2017-12-19T15:59:56.061Z,4.30
2017-12-19T16:02:25.854Z,4.20
2017-12-19T16:04:56.140Z,4.30
2017-12-19T16:07:25.878Z,4.30
2017-12-19T16:09:55.638Z,4.30
2017-12-19T16:12:27.005Z,4.30
2017-12-19T16:14:56.917Z,4.30
2017-12-19T16:17:27.456Z,4.30
2017-12-19T16:19:57.995Z,4.30
2017-12-19T16:22:27.746Z,4.20
2017-12-19T16:24:57.527Z,4.20
2017-12-19T16:27:27.401Z,4.20
2017-12-19T16:29:57.184Z,4.20
2017-12-19T16:32:26.949Z,4.20
2017-12-19T16:34:56.730Z,4.20
2017-12-19T16:37:26.451Z,4.30
2017-12-19T16:39:56.210Z,4.30
2017-12-19T16:42:26.183Z,4.30
2017-12-19T16:44:55.966Z,4.40
2017-12-19T16:47:25.754Z,4.40
2017-12-19T16:49:55.644Z,4.40
2017-12-19T16:52:25.764Z,4.40
2017-12-19T16:54:55.617Z,4.40
2017-12-19T16:57:25.379Z,4.30
2017-12-19T16:59:55.920Z,4.30
2017-12-19T17:02:25.785Z,4.30
2017-12-19T17:04:55.606Z,4.30
2017-12-19T17:07:25.444Z,4.30
2017-12-19T17:09:55.308Z,4.30
2017-12-19T17:12:25.138Z,4.30
2017-12-19T17:14:54.921Z,4.30
2017-12-19T17:17:24.662Z,4.20
2017-12-19T17:19:54.412Z,4.30
2017-12-19T17:22:24.251Z,4.30
2017-12-19T17:24:54.825Z,4.30
2017-12-19T17:27:24.608Z,4.30
2017-12-19T17:29:54.359Z,4.30
2017-12-19T17:32:24.129Z,4.30
2017-12-19T17:34:53.905Z,4.30
2017-12-19T17:37:23.389Z,4.30
2017-12-19T17:39:53.124Z,4.30
2017-12-19T17:42:23.653Z,4.30
2017-12-19T17:44:54.192Z,4.30
2017-12-19T17:47:23.984Z,4.30
2017-12-19T17:49:54.494Z,4.30
2017-12-19T17:52:24.403Z,4.30
2017-12-19T17:54:54.138Z,4.30
2017-12-19T17:57:23.919Z,4.30
2017-12-19T17:59:53.702Z,4.30
2017-12-19T18:02:23.507Z,4.20
2017-12-19T18:04:53.273Z,4.20
2017-12-19T18:07:22.807Z,4.20
2017-12-19T18:09:53.337Z,4.30
2017-12-19T18:12:23.065Z,4.30
2017-12-19T18:14:52.825Z,4.30
2017-12-19T18:17:22.595Z,4.30
2017-12-19T18:19:52.336Z,4.30
2017-12-19T18:22:22.086Z,4.30
2017-12-19T18:24:52.629Z,4.40
2017-12-19T18:27:23.134Z,4.40
2017-12-19T18:29:53.694Z,4.30
2017-12-19T18:32:23.477Z,4.30
2017-12-19T18:34:53.259Z,4.40
2017-12-19T18:37:23.001Z,4.30
2017-12-19T18:39:53.526Z,4.30
2017-12-19T18:42:24.073Z,4.40
2017-12-19T18:44:54.627Z,4.30
2017-12-19T18:47:25.173Z,4.30
2017-12-19T18:49:55.074Z,4.30
2017-12-19T18:52:24.835Z,4.30
2017-12-19T18:54:56.111Z,4.40
2017-12-19T18:57:26.656Z,4.40
2017-12-19T18:59:56.396Z,4.40
2017-12-19T19:02:26.180Z,4.40
2017-12-19T19:04:55.922Z,4.30
2017-12-19T19:07:25.914Z,4.30
2017-12-19T19:09:55.751Z,4.30
2017-12-19T19:12:26.453Z,4.30
2017-12-19T19:14:56.172Z,4.30
2017-12-19T19:17:26.081Z,4.40
2017-12-19T19:19:55.835Z,4.30
2017-12-19T19:22:25.696Z,4.30
2017-12-19T19:24:55.459Z,4.30
2017-12-19T19:27:25.284Z,4.30
2017-12-19T19:29:55.032Z,4.30
2017-12-19T19:32:25.548Z,4.30
2017-12-19T19:34:56.149Z,4.30
2017-12-19T19:37:25.894Z,4.30
2017-12-19T19:39:56.439Z,4.30
2017-12-19T19:42:26.186Z,4.30
2017-12-19T19:44:56.134Z,4.30
2017-12-19T19:47:25.996Z,4.30
2017-12-19T19:49:55.734Z,4.30
2017-12-19T19:52:25.469Z,4.20
2017-12-19T19:54:55.235Z,4.30
2017-12-19T19:57:25.011Z,4.20
2017-12-19T19:59:55.517Z,4.20
2017-12-19T20:02:25.258Z,4.20
2017-12-19T20:04:55.239Z,4.20
2017-12-19T20:07:25.052Z,4.20
2017-12-19T20:09:54.793Z,4.20
2017-12-19T20:12:25.334Z,4.20
2017-12-19T20:14:55.163Z,4.20
2017-12-19T20:17:25.836Z,4.20
2017-12-19T20:19:55.652Z,4.20
2017-12-19T20:22:25.392Z,4.20
2017-12-19T20:24:55.919Z,4.20
2017-12-19T20:27:26.433Z,4.30
2017-12-19T20:29:56.173Z,4.20
2017-12-19T20:32:25.920Z,4.30
2017-12-19T20:34:55.751Z,4.20
2017-12-19T20:37:25.552Z,4.20
2017-12-19T20:39:55.286Z,4.30
2017-12-19T20:42:25.052Z,4.30
2017-12-19T20:44:54.799Z,4.30
2017-12-19T20:47:24.592Z,4.30
2017-12-19T20:49:54.429Z,4.30
2017-12-19T20:52:25.022Z,4.20
2017-12-19T20:54:54.868Z,4.20
2017-12-19T20:57:24.605Z,4.20
2017-12-19T20:59:54.352Z,4.20
2017-12-19T21:02:24.127Z,4.10
2017-12-19T21:04:53.870Z,4.20
2017-12-19T21:07:23.624Z,4.10
2017-12-19T21:09:53.431Z,4.10
2017-12-19T21:12:23.142Z,4.10
2017-12-19T21:14:52.906Z,4.10
2017-12-19T21:17:22.570Z,4.10
2017-12-19T21:19:52.327Z,4.10
2017-12-19T21:22:22.063Z,4.00
2017-12-19T21:24:51.912Z,4.00
2017-12-19T21:27:21.571Z,3.90
2017-12-19T21:29:51.354Z,3.90
2017-12-19T21:32:21.852Z,4.00
2017-12-19T21:34:51.611Z,4.00
2017-12-19T21:37:21.338Z,4.00
2017-12-19T21:39:51.084Z,4.00
2017-12-19T21:42:20.868Z,3.90
2017-12-19T21:44:50.594Z,3.90
2017-12-19T21:47:20.791Z,3.80
2017-12-19T21:49:50.530Z,3.90
2017-12-19T21:52:20.330Z,4.00
2017-12-19T21:54:50.120Z,4.00
2017-12-19T21:57:19.874Z,3.90
2017-12-19T21:59:49.704Z,3.90
2017-12-19T22:02:19.436Z,3.80
2017-12-19T22:04:49.941Z,3.90
2017-12-19T22:07:19.706Z,3.90
2017-12-19T22:09:49.434Z,3.90
2017-12-19T22:12:19.222Z,3.90
2017-12-19T22:14:48.967Z,3.90
2017-12-19T22:17:18.735Z,4.00
2017-12-19T22:19:49.951Z,4.00
2017-12-19T22:22:19.696Z,4.00
2017-12-19T22:24:49.424Z,4.00
2017-12-19T22:27:19.359Z,4.00
2017-12-19T22:29:49.070Z,3.90
2017-12-19T22:32:18.824Z,3.90
2017-12-19T22:34:49.361Z,3.90
2017-12-19T22:37:20.307Z,3.90
2017-12-19T22:39:50.034Z,3.90
2017-12-19T22:42:19.776Z,3.90
2017-12-19T22:44:49.681Z,3.90
2017-12-19T22:47:19.958Z,3.90
2017-12-19T22:49:50.665Z,3.90
2017-12-19T22:52:20.627Z,3.90
2017-12-19T22:54:50.396Z,3.90
2017-12-19T22:57:19.978Z,3.90
2017-12-19T22:59:50.305Z,3.90
2017-12-19T23:02:20.189Z,3.90
2017-12-19T23:04:49.658Z,3.90
2017-12-19T23:07:20.433Z,3.90
2017-12-19T23:09:50.543Z,3.90
2017-12-19T23:12:20.479Z,3.90
2017-12-19T23:14:50.646Z,3.90
2017-12-19T23:17:22.564Z,3.80
2017-12-19T23:19:52.358Z,3.80
2017-12-19T23:22:22.126Z,3.80
2017-12-19T23:24:51.910Z,3.80
2017-12-19T23:27:21.629Z,3.90
2017-12-19T23:29:51.386Z,3.90
2017-12-19T23:32:21.896Z,3.90
2017-12-19T23:34:51.694Z,3.90
2017-12-19T23:37:21.437Z,3.90
2017-12-19T23:39:51.989Z,3.90
2017-12-19T23:42:21.828Z,3.90
2017-12-19T23:44:51.593Z,3.90
2017-12-19T23:47:22.129Z,3.90
2017-12-19T23:49:51.900Z,3.90
2017-12-19T23:52:23.358Z,3.90
2017-12-19T23:54:54.603Z,3.90
2017-12-19T23:57:24.409Z,3.90
2017-12-19T23:59:54.583Z,3.90
